createdAt,value
2022-11-17T00:00:53.036Z,5.95
2022-11-17T00:05:56.118Z,5.95
2022-11-17T00:11:02.633Z,5.97
2022-11-17T00:16:05.993Z,6.00
2022-11-17T00:21:23.895Z,6.03
2022-11-17T00:26:35.119Z,6.03
2022-11-17T00:31:57.387Z,6.01
2022-11-17T00:37:00.386Z,5.95
2022-11-17T00:42:03.919Z,5.94
2022-11-17T00:47:06.934Z,5.91
2022-11-17T00:52:10.048Z,5.93
2022-11-17T00:57:13.056Z,5.99
2022-11-17T01:02:16.244Z,6.02
2022-11-17T01:07:19.494Z,6.05
2022-11-17T01:12:22.735Z,6.04
2022-11-17T01:17:25.709Z,6.08
2022-11-17T01:22:28.671Z,6.09
2022-11-17T01:27:31.657Z,6.06
2022-11-17T01:32:34.607Z,6.03
2022-11-17T01:37:37.756Z,5.98
2022-11-17T01:42:40.841Z,6.00
2022-11-17T01:47:54.401Z,6.05
2022-11-17T01:53:01.227Z,6.04
2022-11-17T01:58:12.365Z,6.06
2022-11-17T02:03:15.730Z,6.04
2022-11-17T02:08:22.455Z,6.00
2022-11-17T02:13:25.526Z,5.94
2022-11-17T02:18:28.850Z,5.90
2022-11-17T02:23:51.996Z,5.85
2022-11-17T02:29:03.699Z,5.83
2022-11-17T02:34:18.727Z,5.86
2022-11-17T02:39:26.505Z,5.92
2022-11-17T02:44:39.935Z,5.96
2022-11-17T02:49:55.631Z,5.95
2022-11-17T02:55:04.151Z,5.92
2022-11-17T03:00:10.396Z,5.88
2022-11-17T03:05:27.855Z,5.84
2022-11-17T03:10:49.955Z,5.82
2022-11-17T03:16:08.225Z,5.80
2022-11-17T03:21:22.167Z,5.77
2022-11-17T03:26:38.207Z,5.80
2022-11-17T03:31:43.393Z,5.84
2022-11-17T03:36:51.278Z,5.83
2022-11-17T03:42:00.101Z,5.80
2022-11-17T03:47:08.798Z,5.82
2022-11-17T03:52:12.013Z,5.81
2022-11-17T03:57:53.260Z,5.85
2022-11-17T04:02:59.031Z,5.88
2022-11-17T04:08:02.173Z,5.87
2022-11-17T04:13:23.850Z,5.89
2022-11-17T04:18:27.250Z,6.00
2022-11-17T04:23:30.175Z,5.98
2022-11-17T04:28:38.214Z,5.95
2022-11-17T04:33:45.617Z,5.97
2022-11-17T04:38:51.005Z,5.90
2022-11-17T04:43:54.630Z,5.85
2022-11-17T04:48:58.402Z,5.81
2022-11-17T04:54:02.345Z,5.79
2022-11-17T04:59:05.449Z,5.87
2022-11-17T05:04:11.125Z,5.92
2022-11-17T05:09:15.139Z,5.95
2022-11-17T05:14:20.892Z,5.91
2022-11-17T05:19:24.921Z,5.87
2022-11-17T05:24:28.185Z,5.84
2022-11-17T05:29:31.149Z,5.75
2022-11-17T05:34:34.109Z,5.66
2022-11-17T05:39:37.158Z,5.59
2022-11-17T05:44:40.221Z,5.57
2022-11-17T05:49:43.323Z,5.58
2022-11-17T05:54:46.217Z,5.63
2022-11-17T05:59:55.050Z,5.63
2022-11-17T06:04:59.017Z,5.59
2022-11-17T06:10:03.560Z,5.53
2022-11-17T06:15:06.871Z,5.44
2022-11-17T06:20:17.350Z,5.41
2022-11-17T06:25:20.925Z,5.33
2022-11-17T06:30:23.933Z,5.21
2022-11-17T06:35:28.941Z,5.14
2022-11-17T06:40:32.124Z,5.19
2022-11-17T06:45:44.046Z,5.19
2022-11-17T06:50:48.526Z,5.14
2022-11-17T06:55:59.326Z,5.12
2022-11-17T07:01:06.086Z,5.11
2022-11-17T07:06:11.173Z,5.06
2022-11-17T07:11:16.709Z,5.04
2022-11-17T07:16:23.826Z,5.01
2022-11-17T07:21:27.356Z,5.00
2022-11-17T07:26:30.517Z,5.03
2022-11-17T07:31:36.682Z,5.09
2022-11-17T07:36:39.609Z,5.16
2022-11-17T07:41:42.688Z,5.20
2022-11-17T07:46:45.791Z,5.23
2022-11-17T07:51:48.801Z,5.18
2022-11-17T07:56:51.786Z,5.12
2022-11-17T08:01:54.753Z,5.13
2022-11-17T08:06:57.873Z,5.06
2022-11-17T08:12:00.991Z,5.03
2022-11-17T08:17:04.540Z,5.10
2022-11-17T08:22:07.633Z,5.18
2022-11-17T08:27:10.628Z,5.26
2022-11-17T08:32:13.681Z,5.29
2022-11-17T08:37:16.599Z,5.31
2022-11-17T08:42:19.531Z,5.33
2022-11-17T08:47:22.622Z,5.32
2022-11-17T08:52:28.164Z,5.30
2022-11-17T08:57:31.993Z,5.29
2022-11-17T09:02:34.986Z,5.27
2022-11-17T09:07:38.015Z,5.22
2022-11-17T09:12:41.347Z,5.18
2022-11-17T09:17:47.833Z,5.23
2022-11-17T09:22:50.954Z,5.27
2022-11-17T09:27:54.128Z,5.26
2022-11-17T09:32:58.013Z,5.24
2022-11-17T09:38:01.890Z,5.20
2022-11-17T09:43:16.474Z,5.19
2022-11-17T09:48:41.166Z,5.19
2022-11-17T09:54:13.823Z,5.17
2022-11-17T09:59:20.958Z,5.15
2022-11-17T10:04:29.583Z,5.14
2022-11-17T10:09:44.363Z,5.14
2022-11-17T10:14:51.297Z,5.14
2022-11-17T10:19:54.367Z,5.13
2022-11-17T10:24:58.841Z,5.15
2022-11-17T10:30:07.317Z,5.19
2022-11-17T10:35:31.166Z,5.18
2022-11-17T10:40:39.981Z,5.13
2022-11-17T10:45:56.695Z,5.09
2022-11-17T10:51:09.281Z,5.11
2022-11-17T10:56:16.039Z,5.14
2022-11-17T11:01:32.531Z,5.19
2022-11-17T11:06:35.945Z,5.16
2022-11-17T11:11:56.488Z,5.13
2022-11-17T11:16:59.895Z,5.12
2022-11-17T11:22:45.906Z,5.10
2022-11-17T11:28:14.959Z,5.08
2022-11-17T11:33:33.417Z,5.09
2022-11-17T11:38:55.308Z,5.06
2022-11-17T11:44:19.852Z,5.02
2022-11-17T11:49:54.549Z,5.01
2022-11-17T11:55:05.871Z,5.06
2022-11-17T12:00:16.841Z,5.15
2022-11-17T12:05:29.334Z,5.23
2022-11-17T12:10:38.832Z,5.22
2022-11-17T12:15:41.870Z,5.19
2022-11-17T12:20:49.908Z,5.19
2022-11-17T12:25:57.403Z,5.17
2022-11-17T12:31:11.710Z,5.15
2022-11-17T12:36:29.715Z,5.10
2022-11-17T12:41:48.935Z,5.03
2022-11-17T12:47:02.778Z,4.99
2022-11-17T12:52:15.718Z,5.01
2022-11-17T12:57:30.475Z,4.95
2022-11-17T13:02:53.282Z,5.00
2022-11-17T13:08:20.528Z,5.10
2022-11-17T13:13:24.712Z,5.17
2022-11-17T13:18:33.243Z,5.21
2022-11-17T13:23:44.575Z,5.22
2022-11-17T13:28:49.292Z,5.27
2022-11-17T13:34:10.443Z,5.21
2022-11-17T13:39:17.150Z,5.15
2022-11-17T13:44:25.619Z,5.10
2022-11-17T13:49:39.374Z,4.98
2022-11-17T13:54:44.914Z,4.91
2022-11-17T13:59:48.132Z,4.88
2022-11-17T14:05:08.187Z,4.87
2022-11-17T14:10:20.979Z,4.85
2022-11-17T14:15:49.130Z,4.81
2022-11-17T14:21:05.308Z,4.84
2022-11-17T14:26:34.357Z,4.89
2022-11-17T14:31:37.305Z,4.90
2022-11-17T14:36:41.284Z,4.89
2022-11-17T14:41:45.753Z,4.92
2022-11-17T14:46:48.832Z,4.94
2022-11-17T14:51:51.881Z,4.91
2022-11-17T14:56:54.810Z,4.87
2022-11-17T15:01:57.877Z,4.81
2022-11-17T15:07:00.940Z,4.81
2022-11-17T15:12:04.298Z,4.77
2022-11-17T15:17:11.171Z,4.73
2022-11-17T15:22:17.112Z,4.72
2022-11-17T15:27:20.059Z,4.80
2022-11-17T15:32:22.990Z,4.83
2022-11-17T15:37:26.049Z,4.86
2022-11-17T15:42:29.057Z,4.83
2022-11-17T15:47:32.276Z,4.76
2022-11-17T15:52:57.066Z,4.73
2022-11-17T15:57:58.282Z,4.65
2022-11-17T16:03:01.976Z,4.63
2022-11-17T16:08:05.208Z,4.60
2022-11-17T16:13:08.195Z,4.53
2022-11-17T16:18:11.200Z,4.50
2022-11-17T16:23:15.486Z,4.48
2022-11-17T16:28:18.464Z,4.49
2022-11-17T16:33:21.557Z,4.56
2022-11-17T16:38:24.570Z,4.60
2022-11-17T16:43:29.318Z,4.57
2022-11-17T16:48:33.874Z,4.51
2022-11-17T16:53:36.914Z,4.48
2022-11-17T16:58:40.355Z,4.45
2022-11-17T17:03:43.802Z,4.39
2022-11-17T17:08:46.870Z,4.30
2022-11-17T17:13:50.144Z,4.25
2022-11-17T17:18:59.655Z,4.23
2022-11-17T17:24:03.377Z,4.23
2022-11-17T17:29:07.538Z,4.22
2022-11-17T17:34:12.224Z,4.28
2022-11-17T17:39:18.322Z,4.40
2022-11-17T17:44:21.513Z,4.48
2022-11-17T17:49:24.458Z,4.51
2022-11-17T17:54:27.485Z,4.54
2022-11-17T17:59:30.457Z,4.54
2022-11-17T18:04:33.584Z,4.47
2022-11-17T18:09:36.581Z,4.40
2022-11-17T18:14:41.515Z,4.39
2022-11-17T18:19:44.472Z,4.36
2022-11-17T18:24:47.419Z,4.33
2022-11-17T18:29:50.425Z,4.31
2022-11-17T18:34:53.367Z,4.29
2022-11-17T18:39:56.559Z,4.24
2022-11-17T18:44:59.548Z,4.22
2022-11-17T18:50:02.464Z,4.33
2022-11-17T18:55:06.070Z,4.40
2022-11-17T19:00:09.637Z,4.38
2022-11-17T19:05:12.639Z,4.36
2022-11-17T19:10:16.574Z,4.32
2022-11-17T19:15:19.511Z,4.30
2022-11-17T19:20:22.676Z,4.29
2022-11-17T19:25:25.614Z,4.27
2022-11-17T19:30:28.606Z,4.27
2022-11-17T19:35:31.555Z,4.23
2022-11-17T19:40:35.017Z,4.17
2022-11-17T19:45:37.936Z,4.16
2022-11-17T19:50:40.845Z,4.20
2022-11-17T19:55:43.804Z,4.17
2022-11-17T20:00:48.776Z,4.22
2022-11-17T20:05:51.778Z,4.27
2022-11-17T20:11:03.180Z,4.24
2022-11-17T20:16:11.945Z,4.18
2022-11-17T20:21:15.518Z,4.15
2022-11-17T20:26:21.441Z,4.22
2022-11-17T20:31:27.209Z,4.17
2022-11-17T20:36:32.908Z,4.15
2022-11-17T20:41:35.989Z,4.18
2022-11-17T20:46:39.027Z,4.25
2022-11-17T20:51:42.180Z,4.24
2022-11-17T20:56:45.119Z,4.19
2022-11-17T21:01:49.430Z,4.21
2022-11-17T21:06:52.527Z,4.24
2022-11-17T21:11:58.456Z,4.25
2022-11-17T21:17:01.753Z,4.24
2022-11-17T21:22:04.868Z,4.22
2022-11-17T21:27:07.894Z,4.18
2022-11-17T21:32:10.941Z,4.14
2022-11-17T21:37:13.945Z,4.14
2022-11-17T21:42:16.911Z,4.09
2022-11-17T21:47:21.655Z,4.04
2022-11-17T21:52:24.585Z,4.03
2022-11-17T21:57:27.556Z,4.02
2022-11-17T22:02:30.505Z,4.01
2022-11-17T22:07:33.520Z,3.99
2022-11-17T22:12:36.487Z,3.96
2022-11-17T22:17:39.456Z,3.97
2022-11-17T22:22:42.453Z,4.04
2022-11-17T22:27:45.391Z,4.10
2022-11-17T22:32:48.378Z,4.14
2022-11-17T22:37:51.337Z,4.16
2022-11-17T22:42:54.494Z,4.14
2022-11-17T22:47:57.397Z,4.12
2022-11-17T22:53:01.361Z,4.11
2022-11-17T22:58:04.495Z,4.08
2022-11-17T23:03:07.476Z,4.06
2022-11-17T23:08:10.455Z,4.03
2022-11-17T23:13:13.518Z,4.02
2022-11-17T23:18:16.613Z,4.00
2022-11-17T23:23:19.671Z,4.01
2022-11-17T23:28:22.633Z,3.96
2022-11-17T23:33:25.872Z,3.92
2022-11-17T23:38:31.076Z,3.96
2022-11-17T23:43:34.194Z,4.02
2022-11-17T23:48:37.429Z,4.10
2022-11-17T23:53:40.725Z,4.16
2022-11-17T23:58:44.307Z,4.17
